Time;durP1;ratioP1;P1;durP2;ratioP2;P2;SDS_P1;SDS_P2;PMS_P1;PMS_P2;Temp;Humidity;BMP_temperature;BMP_pressure;BME280_temperature;BME280_humidity;BME280_pressure;Samples;Min_cycle;Max_cycle;Signal;HPM_P1;HPM_P2
2024/02/28 00:02:03;;;;;;;0.30;0.30;;;;;;;;;;5040853;28;20315;-74
2024/02/28 00:04:30;;;;;;;0.30;0.30;;;;;;;;;;5038209;28;20277;-74
2024/02/28 00:06:56;;;;;;;0.30;0.30;;;;;;;;;;5038596;28;20235;-74
2024/02/28 00:09:23;;;;;;;0.30;0.30;;;;;;;;;;5036168;28;20247;-74
2024/02/28 00:11:49;;;;;;;0.30;0.30;;;;;;;;;;5039729;28;20224;-74
2024/02/28 00:14:16;;;;;;;0.30;0.30;;;;;;;;;;5036967;28;20220;-74
2024/02/28 00:16:43;;;;;;;0.30;0.30;;;;;;;;;;5037687;28;20227;-74
2024/02/28 00:19:13;;;;;;;0.33;0.33;;;;;;;;;;5023035;28;20216;-74
2024/02/28 00:21:40;;;;;;;0.87;0.87;;;;;;;;;;5022757;28;20253;-74
2024/02/28 00:24:08;;;;;;;0.30;0.30;;;;;;;;;;5039349;28;20303;-74
2024/02/28 00:26:34;;;;;;;0.37;0.37;;;;;;;;;;5020372;28;20770;-74
2024/02/28 00:29:01;;;;;;;0.80;0.57;;;;;;;;;;5037490;28;20708;-74
2024/02/28 00:31:28;;;;;;;3.80;0.90;;;;;;;;;;5040159;28;20228;-74
2024/02/28 00:33:54;;;;;;;0.53;0.53;;;;;;;;;;5039996;28;20235;-74
2024/02/28 00:36:21;;;;;;;0.40;0.40;;;;;;;;;;5038744;28;20286;-74
2024/02/28 00:38:48;;;;;;;0.67;0.67;;;;;;;;;;5037595;28;20706;-74
2024/02/28 00:41:14;;;;;;;2.10;2.00;;;;;;;;;;5022422;28;20223;-74
2024/02/28 00:43:41;;;;;;;0.40;0.40;;;;;;;;;;5042833;28;20216;-74
2024/02/28 00:46:14;;;;;;;0.30;0.30;;;;;;;;;;5058902;28;20212;-74
2024/02/28 00:48:40;;;;;;;0.67;0.67;;;;;;;;;;5064120;28;20211;-74
2024/02/28 00:51:09;;;;;;;3.60;3.40;;;;;;;;;;5056576;28;20239;-74
2024/02/28 00:53:36;;;;;;;0.97;0.97;;;;;;;;;;5038041;28;20223;-74
2024/02/28 00:56:03;;;;;;;0.30;0.30;;;;;;;;;;5037764;28;20235;-74
2024/02/28 00:58:30;;;;;;;0.67;0.67;;;;;;;;;;5037428;28;20223;-74
2024/02/28 01:00:57;;;;;;;0.30;0.30;;;;;;;;;;5040214;28;20249;-74
2024/02/28 01:03:24;;;;;;;0.50;0.50;;;;;;;;;;5023852;28;20227;-74
2024/02/28 01:05:51;;;;;;;0.20;0.20;;;;;;;;;;5037784;28;20716;-74
2024/02/28 01:08:18;;;;;;;0.30;0.30;;;;;;;;;;5039346;28;20308;-74
2024/02/28 01:10:45;;;;;;;0.33;0.33;;;;;;;;;;5037220;28;20227;-74
2024/02/28 01:13:12;;;;;;;0.20;0.20;;;;;;;;;;5038975;28;20728;-74
2024/02/28 01:15:42;;;;;;;0.40;0.40;;;;;;;;;;5038118;28;20926;-74
2024/02/28 01:18:10;;;;;;;0.40;0.40;;;;;;;;;;5038854;28;20303;-74
2024/02/28 01:20:37;;;;;;;1.07;0.90;;;;;;;;;;5037793;28;20437;-74
2024/02/28 01:23:03;;;;;;;0.30;0.30;;;;;;;;;;5039098;28;20254;-74
2024/02/28 01:25:30;;;;;;;0.40;0.40;;;;;;;;;;5022704;28;20223;-74
2024/02/28 01:27:59;;;;;;;0.30;0.30;;;;;;;;;;5037938;28;20711;-74
2024/02/28 01:30:26;;;;;;;0.30;0.30;;;;;;;;;;5038972;28;20644;-74
2024/02/28 01:32:52;;;;;;;2.67;1.03;;;;;;;;;;5041682;28;20226;-74
2024/02/28 01:35:19;;;;;;;0.23;0.23;;;;;;;;;;5059470;28;20225;-74
2024/02/28 01:37:47;;;;;;;0.30;0.30;;;;;;;;;;5060284;28;20223;-74
2024/02/28 01:40:13;;;;;;;0.30;0.30;;;;;;;;;;5059365;28;20226;-74
2024/02/28 01:42:39;;;;;;;0.30;0.30;;;;;;;;;;5059035;28;20215;-74
2024/02/28 01:45:08;;;;;;;0.60;0.60;;;;;;;;;;5053933;28;20242;-74
2024/02/28 01:47:36;;;;;;;0.43;0.43;;;;;;;;;;5072719;28;20223;-75
2024/02/28 01:50:04;;;;;;;0.43;0.43;;;;;;;;;;5059944;28;20259;-74
2024/02/28 01:52:30;;;;;;;0.30;0.30;;;;;;;;;;5070293;28;20227;-74
2024/02/28 01:54:57;;;;;;;0.20;0.20;;;;;;;;;;5056631;28;20222;-74
2024/02/28 01:57:24;;;;;;;0.30;0.30;;;;;;;;;;5058863;28;20223;-74
2024/02/28 01:59:52;;;;;;;0.27;0.27;;;;;;;;;;5059500;28;20214;-74
2024/02/28 02:02:18;;;;;;;0.40;0.40;;;;;;;;;;5059340;28;20235;-74
2024/02/28 02:04:45;;;;;;;0.93;0.57;;;;;;;;;;5059373;28;20249;-74
2024/02/28 02:07:12;;;;;;;0.30;0.30;;;;;;;;;;5060792;28;20301;-74
2024/02/28 02:09:38;;;;;;;0.40;0.40;;;;;;;;;;5058361;28;20231;-74
2024/02/28 02:12:06;;;;;;;0.50;0.50;;;;;;;;;;5058183;28;20336;-74
2024/02/28 02:14:32;;;;;;;0.57;0.57;;;;;;;;;;5057279;28;20262;-74
2024/02/28 02:16:59;;;;;;;0.50;0.50;;;;;;;;;;5058727;28;20221;-73
2024/02/28 02:19:26;;;;;;;0.67;0.67;;;;;;;;;;5057368;28;20882;-73
2024/02/28 02:21:57;;;;;;;0.30;0.30;;;;;;;;;;5058988;28;20314;-73
2024/02/28 02:24:23;;;;;;;0.30;0.30;;;;;;;;;;5056265;28;20227;-73
2024/02/28 02:26:55;;;;;;;0.40;0.40;;;;;;;;;;5019124;28;20247;-73
2024/02/28 02:29:21;;;;;;;0.50;0.50;;;;;;;;;;5038540;28;20227;-73
2024/02/28 02:31:48;;;;;;;0.30;0.30;;;;;;;;;;5033763;28;20232;-73
2024/02/28 02:34:14;;;;;;;0.50;0.50;;;;;;;;;;5037538;28;20228;-74
2024/02/28 02:36:41;;;;;;;0.50;0.50;;;;;;;;;;5037345;28;20227;-75
2024/02/28 02:39:08;;;;;;;0.30;0.30;;;;;;;;;;5035581;28;20257;-73
2024/02/28 02:41:34;;;;;;;0.30;0.30;;;;;;;;;;5019889;28;20246;-75
2024/02/28 02:44:01;;;;;;;0.43;0.43;;;;;;;;;;5018808;28;20220;-73
2024/02/28 02:46:27;;;;;;;0.87;0.87;;;;;;;;;;5035581;28;20227;-73
2024/02/28 02:48:54;;;;;;;0.30;0.30;;;;;;;;;;5037937;28;20236;-73
2024/02/28 02:51:21;;;;;;;0.50;0.50;;;;;;;;;;5036349;28;20725;-73
2024/02/28 02:53:47;;;;;;;0.60;0.60;;;;;;;;;;5031334;28;20242;-73
2024/02/28 02:56:14;;;;;;;1.90;0.80;;;;;;;;;;5029668;28;20226;-73
2024/02/28 02:58:40;;;;;;;0.30;0.30;;;;;;;;;;5030874;28;20235;-75
2024/02/28 03:01:08;;;;;;;0.30;0.30;;;;;;;;;;5035397;28;20230;-73
2024/02/28 03:03:37;;;;;;;0.37;0.37;;;;;;;;;;5027687;28;20278;-74
2024/02/28 03:06:05;;;;;;;0.77;0.43;;;;;;;;;;5032497;28;20219;-73
2024/02/28 03:08:31;;;;;;;0.20;0.20;;;;;;;;;;5012730;28;20226;-73
2024/02/28 03:10:58;;;;;;;0.40;0.40;;;;;;;;;;5030444;28;20856;-73
2024/02/28 03:13:25;;;;;;;0.30;0.30;;;;;;;;;;5039564;28;20278;-74
2024/02/28 03:15:51;;;;;;;0.50;0.50;;;;;;;;;;5038303;28;20724;-74
2024/02/28 03:18:18;;;;;;;0.30;0.30;;;;;;;;;;5021883;28;20220;-74
2024/02/28 03:20:45;;;;;;;0.73;0.73;;;;;;;;;;5019402;28;20850;-73
2024/02/28 03:23:11;;;;;;;1.50;0.70;;;;;;;;;;5036468;28;20573;-73
2024/02/28 03:25:38;;;;;;;0.30;0.30;;;;;;;;;;5035923;28;20227;-73
2024/02/28 03:28:04;;;;;;;1.63;1.53;;;;;;;;;;5034036;28;20265;-73
2024/02/28 03:30:31;;;;;;;0.30;0.30;;;;;;;;;;5020371;28;20227;-73
2024/02/28 03:32:57;;;;;;;0.20;0.20;;;;;;;;;;5032891;28;20228;-73
2024/02/28 03:35:23;;;;;;;0.40;0.40;;;;;;;;;;5036940;28;20220;-73
2024/02/28 03:37:50;;;;;;;0.43;0.37;;;;;;;;;;5040810;28;20257;-75
2024/02/28 03:40:17;;;;;;;1.53;1.43;;;;;;;;;;5040719;28;20211;-73
2024/02/28 03:42:43;;;;;;;0.30;0.30;;;;;;;;;;5040337;28;20220;-73
2024/02/28 03:45:09;;;;;;;0.30;0.30;;;;;;;;;;5025387;28;20230;-73
2024/02/28 03:47:36;;;;;;;1.60;1.00;;;;;;;;;;5039811;28;20580;-75
2024/02/28 03:50:03;;;;;;;0.30;0.30;;;;;;;;;;5038721;28;20744;-73
2024/02/28 03:52:30;;;;;;;1.17;0.63;;;;;;;;;;5039679;28;20229;-74
2024/02/28 03:54:57;;;;;;;0.40;0.40;;;;;;;;;;5039510;28;20243;-75
2024/02/28 03:57:24;;;;;;;0.40;0.40;;;;;;;;;;5052108;28;20250;-73
2024/02/28 03:59:51;;;;;;;0.60;0.60;;;;;;;;;;5058136;28;20840;-74
2024/02/28 04:02:17;;;;;;;0.20;0.20;;;;;;;;;;5050197;28;20220;-75
2024/02/28 04:04:44;;;;;;;0.30;0.30;;;;;;;;;;5041159;28;20228;-73
2024/02/28 04:07:10;;;;;;;0.30;0.30;;;;;;;;;;5023558;28;20227;-73
2024/02/28 04:09:37;;;;;;;0.60;0.60;;;;;;;;;;5040602;28;20227;-75
2024/02/28 04:12:03;;;;;;;0.30;0.30;;;;;;;;;;5024679;28;20254;-74
2024/02/28 04:14:30;;;;;;;0.20;0.20;;;;;;;;;;5038388;28;20222;-74
2024/02/28 04:16:56;;;;;;;0.30;0.30;;;;;;;;;;5039637;28;20223;-74
2024/02/28 04:19:23;;;;;;;0.40;0.40;;;;;;;;;;5037206;28;20232;-75
2024/02/28 04:21:49;;;;;;;0.30;0.30;;;;;;;;;;5039612;28;20224;-74
2024/02/28 04:24:16;;;;;;;0.63;0.63;;;;;;;;;;5024924;28;20276;-75
2024/02/28 04:26:43;;;;;;;0.30;0.30;;;;;;;;;;5042433;28;20243;-74
2024/02/28 04:29:13;;;;;;;0.30;0.30;;;;;;;;;;5044033;28;20884;-75
2024/02/28 04:31:40;;;;;;;0.30;0.30;;;;;;;;;;5042847;28;20251;-75
2024/02/28 04:34:06;;;;;;;0.30;0.30;;;;;;;;;;5023660;28;20227;-74
2024/02/28 04:36:33;;;;;;;0.30;0.30;;;;;;;;;;5038103;28;20767;-75
2024/02/28 04:39:00;;;;;;;0.20;0.20;;;;;;;;;;5043427;28;20714;-75
2024/02/28 04:41:30;;;;;;;0.30;0.30;;;;;;;;;;5043072;28;20216;-75
2024/02/28 04:43:56;;;;;;;0.30;0.30;;;;;;;;;;5041321;28;20223;-75
2024/02/28 04:46:23;;;;;;;1.47;1.47;;;;;;;;;;5021289;28;20223;-74
2024/02/28 04:48:49;;;;;;;0.30;0.30;;;;;;;;;;5043921;28;20235;-74
2024/02/28 04:51:17;;;;;;;0.23;0.23;;;;;;;;;;5040975;28;20236;-75
2024/02/28 04:53:44;;;;;;;0.53;0.53;;;;;;;;;;5039531;28;20226;-75
2024/02/28 04:56:10;;;;;;;0.40;0.40;;;;;;;;;;5041232;28;20587;-74
2024/02/28 04:58:37;;;;;;;0.33;0.33;;;;;;;;;;5023441;28;20700;-74
2024/02/28 05:01:04;;;;;;;0.30;0.30;;;;;;;;;;5025429;28;20219;-75
2024/02/28 05:03:30;;;;;;;0.20;0.20;;;;;;;;;;5041196;28;20278;-74
2024/02/28 05:05:57;;;;;;;0.40;0.40;;;;;;;;;;5037964;28;20691;-75
2024/02/28 05:08:24;;;;;;;0.93;0.83;;;;;;;;;;5039580;28;20230;-75
2024/02/28 05:10:51;;;;;;;0.70;0.70;;;;;;;;;;5039852;28;20244;-74
2024/02/28 05:13:17;;;;;;;0.30;0.30;;;;;;;;;;5038655;28;20220;-74
2024/02/28 05:15:44;;;;;;;0.30;0.30;;;;;;;;;;5017684;28;20223;-74
2024/02/28 05:18:10;;;;;;;0.37;0.37;;;;;;;;;;5037492;28;20223;-74
2024/02/28 05:20:37;;;;;;;0.70;0.70;;;;;;;;;;5024640;28;20216;-75
2024/02/28 05:23:03;;;;;;;0.30;0.30;;;;;;;;;;5026779;28;20228;-74
2024/02/28 05:25:30;;;;;;;0.43;0.37;;;;;;;;;;5022696;28;20231;-74
2024/02/28 05:27:56;;;;;;;0.67;0.67;;;;;;;;;;5039240;28;20241;-75
2024/02/28 05:30:22;;;;;;;0.30;0.30;;;;;;;;;;5020910;28;20231;-75
2024/02/28 05:32:50;;;;;;;0.30;0.30;;;;;;;;;;5042839;28;20276;-75
2024/02/28 05:35:16;;;;;;;0.30;0.30;;;;;;;;;;5040009;28;20230;-74
2024/02/28 05:37:44;;;;;;;0.30;0.30;;;;;;;;;;5039342;28;20223;-75
2024/02/28 05:40:12;;;;;;;0.30;0.30;;;;;;;;;;5039832;28;20230;-75
2024/02/28 05:42:39;;;;;;;0.30;0.30;;;;;;;;;;5031196;28;20963;-74
2024/02/28 05:45:06;;;;;;;0.30;0.30;;;;;;;;;;5035548;28;20900;-75
2024/02/28 05:47:33;;;;;;;0.30;0.30;;;;;;;;;;5031744;28;20254;-74
2024/02/28 05:50:00;;;;;;;0.30;0.30;;;;;;;;;;5036938;28;20227;-75
2024/02/28 05:52:27;;;;;;;0.30;0.30;;;;;;;;;;5023223;28;20221;-75
2024/02/28 05:54:53;;;;;;;0.40;0.40;;;;;;;;;;5055368;28;20227;-74
2024/02/28 05:57:20;;;;;;;0.30;0.30;;;;;;;;;;5057877;28;20584;-74
2024/02/28 05:59:46;;;;;;;0.30;0.30;;;;;;;;;;5044975;28;20239;-74
2024/02/28 06:02:13;;;;;;;0.30;0.30;;;;;;;;;;5059031;28;20314;-75
2024/02/28 06:04:40;;;;;;;0.30;0.30;;;;;;;;;;5043131;28;20695;-75
2024/02/28 06:07:06;;;;;;;0.30;0.30;;;;;;;;;;5057299;28;20314;-75
2024/02/28 06:09:33;;;;;;;0.40;0.40;;;;;;;;;;5061877;28;20235;-75
2024/02/28 06:12:01;;;;;;;2.07;1.97;;;;;;;;;;5062079;28;20719;-74
2024/02/28 06:14:28;;;;;;;0.30;0.30;;;;;;;;;;5040245;28;20227;-75
2024/02/28 06:16:54;;;;;;;0.60;0.60;;;;;;;;;;5061807;28;20233;-74
2024/02/28 06:19:21;;;;;;;0.20;0.20;;;;;;;;;;5058074;28;20233;-73
2024/02/28 06:21:47;;;;;;;1.20;1.13;;;;;;;;;;5065312;28;20218;-74
2024/02/28 06:24:14;;;;;;;0.30;0.30;;;;;;;;;;5060946;28;20231;-74
2024/02/28 06:26:42;;;;;;;0.37;0.37;;;;;;;;;;5037269;28;20223;-75
2024/02/28 06:29:08;;;;;;;0.60;0.60;;;;;;;;;;5060044;28;20306;-74
2024/02/28 06:31:35;;;;;;;0.30;0.30;;;;;;;;;;5056528;28;20230;-75
2024/02/28 06:34:02;;;;;;;0.50;0.50;;;;;;;;;;5066543;28;20601;-75
2024/02/28 06:36:28;;;;;;;0.30;0.30;;;;;;;;;;5064661;28;20222;-74
2024/02/28 06:38:55;;;;;;;0.30;0.30;;;;;;;;;;5082642;28;20232;-74
2024/02/28 06:41:22;;;;;;;0.30;0.30;;;;;;;;;;5073882;28;20221;-74
2024/02/28 06:43:48;;;;;;;0.30;0.30;;;;;;;;;;5070969;28;20219;-74
2024/02/28 06:46:14;;;;;;;0.30;0.30;;;;;;;;;;5055551;28;20218;-74
2024/02/28 06:48:41;;;;;;;0.30;0.30;;;;;;;;;;5066111;28;20583;-74
2024/02/28 06:51:07;;;;;;;1.23;0.90;;;;;;;;;;5066292;28;20749;-75
2024/02/28 06:53:34;;;;;;;0.40;0.40;;;;;;;;;;5065338;28;20224;-75
2024/02/28 06:56:02;;;;;;;0.30;0.30;;;;;;;;;;5047607;28;20602;-75
2024/02/28 06:58:29;;;;;;;0.30;0.30;;;;;;;;;;5071262;28;20676;-75
2024/02/28 07:00:55;;;;;;;0.30;0.30;;;;;;;;;;5065818;28;20231;-75
2024/02/28 07:03:26;;;;;;;0.30;0.30;;;;;;;;;;5067275;28;20238;-75
2024/02/28 07:05:53;;;;;;;0.20;0.20;;;;;;;;;;5064129;28;20634;-74
2024/02/28 07:08:20;;;;;;;2.40;2.20;;;;;;;;;;5063312;28;20230;-75
2024/02/28 07:10:49;;;;;;;0.47;0.43;;;;;;;;;;5067142;28;20245;-74
2024/02/28 07:13:16;;;;;;;0.30;0.30;;;;;;;;;;5069007;28;20218;-74
2024/02/28 07:15:43;;;;;;;0.30;0.30;;;;;;;;;;5053885;28;20223;-75
2024/02/28 07:18:10;;;;;;;0.53;0.53;;;;;;;;;;5068037;28;20253;-74
2024/02/28 07:20:36;;;;;;;0.30;0.30;;;;;;;;;;5045490;28;20223;-74
2024/02/28 07:23:03;;;;;;;4.73;3.67;;;;;;;;;;5064093;28;20227;-74
2024/02/28 07:25:31;;;;;;;0.30;0.30;;;;;;;;;;5067280;28;20225;-74
2024/02/28 07:28:01;;;;;;;0.30;0.30;;;;;;;;;;5054735;28;20259;-75
2024/02/28 07:30:27;;;;;;;0.30;0.30;;;;;;;;;;5053466;28;20255;-74
2024/02/28 07:32:54;;;;;;;0.70;0.70;;;;;;;;;;5067678;28;20572;-74
2024/02/28 07:35:23;;;;;;;0.30;0.30;;;;;;;;;;5072225;28;20235;-74
2024/02/28 07:37:50;;;;;;;0.30;0.30;;;;;;;;;;5064583;28;20239;-74
2024/02/28 07:40:16;;;;;;;0.30;0.30;;;;;;;;;;5065390;28;20247;-74
2024/02/28 07:42:43;;;;;;;0.30;0.30;;;;;;;;;;5062639;28;20219;-75
2024/02/28 07:45:10;;;;;;;0.40;0.40;;;;;;;;;;5058501;28;20804;-74
2024/02/28 07:47:37;;;;;;;0.30;0.30;;;;;;;;;;5049837;28;20227;-75
2024/02/28 07:50:05;;;;;;;0.30;0.30;;;;;;;;;;5061966;28;20695;-74
2024/02/28 07:52:34;;;;;;;0.30;0.30;;;;;;;;;;5049733;28;20296;-75
2024/02/28 07:55:02;;;;;;;0.33;0.33;;;;;;;;;;5065253;28;20224;-74
2024/02/28 07:57:29;;;;;;;0.40;0.40;;;;;;;;;;5063437;28;20246;-74
2024/02/28 07:59:56;;;;;;;0.30;0.30;;;;;;;;;;5065595;28;20714;-74
2024/02/28 08:02:22;;;;;;;0.20;0.20;;;;;;;;;;5066183;28;20245;-74
2024/02/28 08:04:50;;;;;;;0.30;0.30;;;;;;;;;;5044580;28;20268;-75
2024/02/28 08:07:16;;;;;;;0.40;0.40;;;;;;;;;;5067614;28;20223;-74
2024/02/28 08:09:43;;;;;;;0.30;0.30;;;;;;;;;;5066520;28;20604;-74
2024/02/28 08:12:09;;;;;;;0.30;0.30;;;;;;;;;;5045702;28;20251;-74
2024/02/28 08:14:36;;;;;;;0.50;0.50;;;;;;;;;;5064747;28;20309;-75
2024/02/28 08:17:03;;;;;;;0.30;0.30;;;;;;;;;;5055160;28;20729;-74
2024/02/28 08:19:29;;;;;;;0.40;0.40;;;;;;;;;;5049970;28;20242;-75
2024/02/28 08:21:56;;;;;;;0.30;0.30;;;;;;;;;;5066677;28;20577;-74
2024/02/28 08:24:22;;;;;;;0.30;0.30;;;;;;;;;;5045065;28;20219;-75
2024/02/28 08:26:49;;;;;;;0.30;0.30;;;;;;;;;;5043736;28;20338;-74
2024/02/28 08:29:16;;;;;;;0.30;0.30;;;;;;;;;;5061747;28;20235;-74
2024/02/28 08:31:43;;;;;;;0.77;0.77;;;;;;;;;;5066488;28;20222;-74
2024/02/28 08:34:10;;;;;;;0.40;0.40;;;;;;;;;;5061352;28;20230;-74
2024/02/28 08:36:37;;;;;;;0.30;0.30;;;;;;;;;;5068718;28;20219;-74
2024/02/28 08:39:04;;;;;;;0.30;0.30;;;;;;;;;;5050019;28;20315;-74
2024/02/28 08:41:33;;;;;;;0.30;0.30;;;;;;;;;;5062721;28;20225;-74
2024/02/28 08:43:59;;;;;;;2.63;2.47;;;;;;;;;;5070066;28;20245;-74
2024/02/28 08:46:26;;;;;;;0.40;0.40;;;;;;;;;;5065544;28;20222;-73
2024/02/28 08:48:53;;;;;;;0.90;0.90;;;;;;;;;;5059450;28;20226;-74
2024/02/28 08:51:20;;;;;;;0.30;0.30;;;;;;;;;;5060850;28;20235;-73
2024/02/28 08:53:46;;;;;;;0.30;0.30;;;;;;;;;;5046701;28;20269;-73
2024/02/28 08:56:13;;;;;;;0.70;0.70;;;;;;;;;;5060165;28;20221;-73
2024/02/28 08:58:40;;;;;;;0.40;0.40;;;;;;;;;;5067882;28;20599;-74
2024/02/28 09:01:07;;;;;;;0.60;0.60;;;;;;;;;;5046436;28;20230;-73
2024/02/28 09:03:33;;;;;;;0.30;0.30;;;;;;;;;;5053119;28;20236;-74
2024/02/28 09:06:01;;;;;;;0.30;0.30;;;;;;;;;;5039062;28;20715;-74
2024/02/28 09:08:27;;;;;;;0.30;0.30;;;;;;;;;;5041724;28;20253;-74
2024/02/28 09:10:54;;;;;;;0.30;0.30;;;;;;;;;;5044845;28;20227;-74
2024/02/28 09:13:20;;;;;;;0.30;0.30;;;;;;;;;;5044865;28;20229;-74
2024/02/28 09:15:47;;;;;;;0.90;0.90;;;;;;;;;;5052163;28;20221;-74
2024/02/28 09:18:16;;;;;;;0.30;0.30;;;;;;;;;;5085576;28;20272;-73
2024/02/28 09:20:43;;;;;;;0.30;0.30;;;;;;;;;;5078693;28;20243;-74
2024/02/28 09:23:09;;;;;;;0.30;0.30;;;;;;;;;;5068051;28;20223;-74
2024/02/28 09:25:36;;;;;;;0.30;0.30;;;;;;;;;;5063627;28;20230;-75
2024/02/28 09:28:02;;;;;;;0.30;0.30;;;;;;;;;;5065858;28;20231;-74
2024/02/28 09:30:29;;;;;;;5.23;0.80;;;;;;;;;;5051211;28;20234;-75
2024/02/28 09:33:08;;;;;;;0.83;0.83;;;;;;;;;;5060736;28;20223;-73
2024/02/28 09:35:36;;;;;;;0.30;0.30;;;;;;;;;;5061442;28;20234;-74
2024/02/28 09:38:03;;;;;;;0.30;0.30;;;;;;;;;;5062807;28;20610;-74
2024/02/28 09:40:30;;;;;;;0.30;0.30;;;;;;;;;;5067112;28;20233;-74
2024/02/28 09:43:02;;;;;;;0.80;0.80;;;;;;;;;;5044605;28;20229;-74
2024/02/28 09:45:30;;;;;;;0.57;0.57;;;;;;;;;;5042907;28;20258;-74
2024/02/28 09:47:59;;;;;;;0.50;0.50;;;;;;;;;;5041269;28;21104;-73
2024/02/28 09:50:27;;;;;;;0.40;0.40;;;;;;;;;;5022443;28;20285;-74
2024/02/28 09:52:54;;;;;;;0.40;0.40;;;;;;;;;;5062501;28;20231;-74
2024/02/28 09:55:35;;;;;;;0.60;0.60;;;;;;;;;;5060458;28;20230;-74
2024/02/28 09:58:02;;;;;;;0.30;0.30;;;;;;;;;;5058949;28;20230;-74
2024/02/28 10:00:29;;;;;;;0.97;0.97;;;;;;;;;;5065070;28;20261;-74
2024/02/28 10:02:57;;;;;;;0.73;0.73;;;;;;;;;;5059444;28;20234;-74
2024/02/28 10:05:26;;;;;;;0.40;0.40;;;;;;;;;;5049062;28;20219;-74
2024/02/28 10:07:53;;;;;;;0.30;0.30;;;;;;;;;;5045635;28;20581;-74
2024/02/28 10:10:20;;;;;;;0.83;0.83;;;;;;;;;;5061765;28;20229;-74
2024/02/28 10:12:47;;;;;;;1.10;1.07;;;;;;;;;;5064155;28;20238;-74
2024/02/28 10:15:13;;;;;;;0.43;0.43;;;;;;;;;;5063723;28;20219;-75
2024/02/28 10:17:40;;;;;;;0.30;0.30;;;;;;;;;;5046855;28;20710;-75
2024/02/28 10:20:06;;;;;;;0.77;0.77;;;;;;;;;;5063865;28;20230;-74
2024/02/28 10:22:34;;;;;;;0.30;0.30;;;;;;;;;;5063845;28;20219;-75
2024/02/28 10:25:01;;;;;;;0.47;0.47;;;;;;;;;;5055596;28;20231;-75
2024/02/28 10:27:27;;;;;;;0.30;0.30;;;;;;;;;;5064789;28;20222;-75
2024/02/28 10:29:54;;;;;;;0.50;0.50;;;;;;;;;;5063129;28;20301;-74
2024/02/28 10:32:20;;;;;;;0.30;0.30;;;;;;;;;;5041715;28;20230;-74
2024/02/28 10:34:47;;;;;;;0.20;0.20;;;;;;;;;;5047066;28;20219;-75
2024/02/28 10:37:13;;;;;;;0.30;0.30;;;;;;;;;;5048650;28;20324;-73
2024/02/28 10:39:41;;;;;;;0.63;0.63;;;;;;;;;;5048054;28;20227;-74
2024/02/28 10:42:10;;;;;;;0.33;0.33;;;;;;;;;;5058516;28;20215;-73
2024/02/28 10:44:38;;;;;;;0.30;0.30;;;;;;;;;;5055102;28;20223;-74
2024/02/28 10:47:07;;;;;;;0.30;0.30;;;;;;;;;;5056981;28;20230;-75
2024/02/28 10:49:38;;;;;;;0.40;0.40;;;;;;;;;;5061022;28;20227;-74
2024/02/28 10:52:07;;;;;;;0.40;0.40;;;;;;;;;;5049430;28;20218;-75
2024/02/28 10:54:37;;;;;;;4.10;0.93;;;;;;;;;;5060502;28;20310;-75
2024/02/28 10:57:05;;;;;;;1.97;1.37;;;;;;;;;;5023337;28;20227;-75
2024/02/28 10:59:35;;;;;;;0.30;0.30;;;;;;;;;;5046129;28;20705;-75
2024/02/28 11:02:02;;;;;;;0.30;0.30;;;;;;;;;;5059522;28;20220;-75
2024/02/28 11:04:29;;;;;;;0.30;0.30;;;;;;;;;;5058378;28;20222;-74
2024/02/28 11:06:56;;;;;;;0.40;0.40;;;;;;;;;;5060691;28;20230;-74
2024/02/28 11:09:28;;;;;;;0.33;0.33;;;;;;;;;;5056558;28;20317;-75
2024/02/28 11:11:56;;;;;;;0.70;0.70;;;;;;;;;;5057899;28;20223;-74
2024/02/28 11:14:25;;;;;;;0.30;0.30;;;;;;;;;;5056000;28;20218;-74
2024/02/28 11:17:05;;;;;;;0.30;0.30;;;;;;;;;;5062985;28;20239;-74
2024/02/28 11:19:33;;;;;;;0.20;0.20;;;;;;;;;;5031969;28;20310;-75
2024/02/28 11:22:03;;;;;;;0.53;0.53;;;;;;;;;;5034914;28;20256;-75
2024/02/28 11:24:31;;;;;;;0.30;0.30;;;;;;;;;;5025624;28;20298;-75
2024/02/28 11:26:58;;;;;;;0.50;0.50;;;;;;;;;;5036938;28;20656;-75
2024/02/28 11:29:26;;;;;;;0.80;0.70;;;;;;;;;;5043398;28;20234;-75
2024/02/28 11:31:53;;;;;;;0.60;0.60;;;;;;;;;;5037115;28;20243;-74
2024/02/28 11:34:21;;;;;;;0.70;0.70;;;;;;;;;;5027412;28;20708;-74
2024/02/28 11:36:49;;;;;;;0.47;0.47;;;;;;;;;;5041717;28;20239;-74
2024/02/28 11:39:16;;;;;;;1.13;1.07;;;;;;;;;;5046647;28;20232;-77
2024/02/28 11:41:46;;;;;;;0.90;0.73;;;;;;;;;;5037805;28;20223;-76
2024/02/28 11:44:16;;;;;;;0.37;0.37;;;;;;;;;;5038659;28;21133;-75
2024/02/28 11:46:44;;;;;;;0.70;0.70;;;;;;;;;;5042490;28;20715;-74
2024/02/28 11:49:12;;;;;;;1.33;1.30;;;;;;;;;;5042815;28;20238;-75
2024/02/28 11:51:42;;;;;;;0.83;0.83;;;;;;;;;;5042494;28;20232;-74
2024/02/28 11:54:10;;;;;;;0.47;0.47;;;;;;;;;;5043753;28;20224;-74
2024/02/28 11:56:38;;;;;;;0.67;0.67;;;;;;;;;;5022413;28;20233;-74
2024/02/28 11:59:05;;;;;;;0.80;0.80;;;;;;;;;;5048365;28;20357;-74
2024/02/28 12:01:41;;;;;;;0.40;0.40;;;;;;;;;;5053602;28;20258;-74
2024/02/28 12:04:10;;;;;;;0.60;0.60;;;;;;;;;;5039030;28;20318;-74
2024/02/28 12:06:37;;;;;;;0.67;0.67;;;;;;;;;;5036774;28;20243;-74
2024/02/28 12:09:08;;;;;;;0.40;0.40;;;;;;;;;;5037415;28;20293;-74
2024/02/28 12:11:35;;;;;;;0.60;0.60;;;;;;;;;;5041003;28;20228;-75
2024/02/28 12:14:03;;;;;;;1.70;1.60;;;;;;;;;;5027406;28;20310;-74
2024/02/28 12:16:30;;;;;;;0.40;0.40;;;;;;;;;;5043561;28;20227;-74
2024/02/28 12:18:56;;;;;;;0.30;0.30;;;;;;;;;;5042369;28;20224;-74
2024/02/28 12:21:23;;;;;;;0.53;0.53;;;;;;;;;;5022870;28;20223;-74
2024/02/28 12:23:50;;;;;;;0.70;0.70;;;;;;;;;;5039709;28;20263;-74
2024/02/28 12:26:18;;;;;;;1.23;0.60;;;;;;;;;;5039197;28;20227;-74
2024/02/28 12:28:45;;;;;;;7.17;1.30;;;;;;;;;;5037848;28;20701;-74
2024/02/28 12:31:13;;;;;;;4.80;2.07;;;;;;;;;;5041183;28;20831;-73
2024/02/28 12:33:39;;;;;;;1.27;1.27;;;;;;;;;;5041684;28;20238;-74
2024/02/28 12:36:06;;;;;;;0.60;0.60;;;;;;;;;;5058731;28;20226;-74
2024/02/28 12:38:33;;;;;;;0.50;0.50;;;;;;;;;;5051451;28;20241;-74
2024/02/28 12:40:59;;;;;;;0.73;0.67;;;;;;;;;;5046976;28;20234;-74
2024/02/28 12:43:26;;;;;;;0.30;0.30;;;;;;;;;;5054414;28;20219;-73
2024/02/28 12:45:52;;;;;;;2.50;1.03;;;;;;;;;;5044760;28;20739;-74
2024/02/28 12:48:19;;;;;;;0.70;0.70;;;;;;;;;;5024974;28;21039;-74
2024/02/28 12:50:45;;;;;;;0.50;0.50;;;;;;;;;;5040130;28;20223;-73
2024/02/28 12:53:12;;;;;;;0.63;0.63;;;;;;;;;;5031862;28;20246;-74
2024/02/28 12:55:38;;;;;;;0.40;0.40;;;;;;;;;;5023244;28;20731;-73
2024/02/28 12:58:05;;;;;;;0.40;0.40;;;;;;;;;;5038286;28;20310;-73
2024/02/28 13:00:32;;;;;;;0.87;0.87;;;;;;;;;;5021548;28;20674;-74
2024/02/28 13:02:58;;;;;;;1.57;1.47;;;;;;;;;;5040103;28;20219;-73
2024/02/28 13:05:25;;;;;;;0.30;0.30;;;;;;;;;;5036445;28;20227;-73
2024/02/28 13:07:55;;;;;;;1.13;1.03;;;;;;;;;;5039245;28;20626;-73
2024/02/28 13:10:22;;;;;;;0.40;0.40;;;;;;;;;;5039770;28;20220;-74
2024/02/28 13:12:48;;;;;;;0.77;0.77;;;;;;;;;;5038251;28;20243;-74
2024/02/28 13:15:15;;;;;;;0.50;0.50;;;;;;;;;;5026762;28;20258;-74
2024/02/28 13:17:41;;;;;;;0.47;0.47;;;;;;;;;;5039038;28;20726;-74
2024/02/28 13:20:08;;;;;;;0.37;0.37;;;;;;;;;;5039296;28;20224;-74
2024/02/28 13:22:35;;;;;;;1.70;1.60;;;;;;;;;;5035841;28;20617;-74
2024/02/28 13:25:01;;;;;;;0.50;0.50;;;;;;;;;;5041081;28;20223;-74
2024/02/28 13:27:28;;;;;;;0.40;0.40;;;;;;;;;;5039809;28;20310;-74
2024/02/28 13:29:54;;;;;;;0.37;0.37;;;;;;;;;;5042003;28;20227;-74
2024/02/28 13:32:20;;;;;;;0.67;0.50;;;;;;;;;;5040388;28;20228;-73
2024/02/28 13:34:47;;;;;;;0.53;0.53;;;;;;;;;;5040418;28;21242;-74
2024/02/28 13:37:15;;;;;;;0.53;0.53;;;;;;;;;;5040885;28;20222;-74
2024/02/28 13:39:42;;;;;;;0.60;0.60;;;;;;;;;;5041185;28;20252;-74
2024/02/28 13:42:09;;;;;;;0.50;0.50;;;;;;;;;;5038791;28;20570;-74
2024/02/28 13:44:36;;;;;;;1.77;0.80;;;;;;;;;;5038947;28;20230;-74
2024/02/28 13:47:03;;;;;;;0.90;0.90;;;;;;;;;;5039190;28;20235;-74
2024/02/28 13:49:30;;;;;;;0.47;0.47;;;;;;;;;;5038427;28;20237;-74
2024/02/28 13:51:56;;;;;;;0.40;0.40;;;;;;;;;;5039018;28;20228;-74
2024/02/28 13:54:23;;;;;;;1.13;1.03;;;;;;;;;;5037580;28;20231;-74
2024/02/28 13:56:49;;;;;;;0.47;0.47;;;;;;;;;;5037935;28;20231;-73
2024/02/28 13:59:16;;;;;;;0.40;0.40;;;;;;;;;;5038910;28;20234;-74
2024/02/28 14:01:43;;;;;;;0.30;0.30;;;;;;;;;;5038676;28;20220;-74
2024/02/28 14:04:09;;;;;;;0.83;0.83;;;;;;;;;;5039270;28;20815;-74
2024/02/28 14:06:36;;;;;;;0.40;0.40;;;;;;;;;;5036372;28;20235;-74
2024/02/28 14:09:03;;;;;;;0.47;0.47;;;;;;;;;;5038426;28;20242;-74
2024/02/28 14:11:30;;;;;;;0.30;0.30;;;;;;;;;;5041451;28;20232;-75
2024/02/28 14:13:57;;;;;;;0.43;0.43;;;;;;;;;;5036139;28;20245;-76
2024/02/28 14:16:23;;;;;;;1.17;1.07;;;;;;;;;;5038766;28;20988;-75
2024/02/28 14:18:51;;;;;;;0.50;0.50;;;;;;;;;;5039433;28;20236;-75
2024/02/28 14:21:17;;;;;;;1.20;1.20;;;;;;;;;;5046968;28;20664;-75
2024/02/28 14:23:45;;;;;;;0.97;0.73;;;;;;;;;;5036728;28;20225;-75
2024/02/28 14:26:11;;;;;;;0.87;0.87;;;;;;;;;;5039319;28;20230;-75
2024/02/28 14:28:38;;;;;;;0.50;0.50;;;;;;;;;;5038263;28;20252;-74
2024/02/28 14:31:05;;;;;;;0.57;0.57;;;;;;;;;;5035821;28;20626;-75
2024/02/28 14:33:31;;;;;;;0.60;0.60;;;;;;;;;;5040642;28;20231;-75
2024/02/28 14:35:59;;;;;;;0.40;0.40;;;;;;;;;;5035774;28;20223;-75
2024/02/28 14:38:26;;;;;;;2.93;2.67;;;;;;;;;;5038315;28;20243;-75
2024/02/28 14:40:52;;;;;;;0.30;0.30;;;;;;;;;;5041320;28;20223;-75
2024/02/28 14:43:19;;;;;;;0.37;0.37;;;;;;;;;;5042138;28;20227;-75